Time;durP1;ratioP1;P1;durP2;ratioP2;P2;SDS_P1;SDS_P2;PMS_P1;PMS_P2;Temp;Humidity;BMP_temperature;BMP_pressure;BME280_temperature;BME280_humidity;BME280_pressure;Samples;Min_cycle;Max_cycle;Signal;HPM_P1;HPM_P2
2022/04/19 00:00:21;;;;;;;3.23;2.13;;;;;;;7.20;55.00;95296.28;4981577;28;20191;-81
2022/04/19 00:02:46;;;;;;;3.90;2.00;;;;;;;7.17;54.50;95301.72;5002840;28;20172;-80
2022/04/19 00:05:11;;;;;;;2.77;1.87;;;;;;;7.14;54.48;95292.47;4987271;28;20184;-81
2022/04/19 00:07:37;;;;;;;2.57;1.87;;;;;;;7.13;54.77;95295.19;4986022;28;20204;-81
2022/04/19 00:10:04;;;;;;;3.20;2.07;;;;;;;7.19;54.53;95289.50;4986650;28;20177;-81
2022/04/19 00:12:29;;;;;;;2.70;2.00;;;;;;;7.19;54.08;95289.50;5003066;28;20169;-80
2022/04/19 00:14:55;;;;;;;3.00;2.00;;;;;;;7.20;53.89;95285.94;5003051;28;20236;-80
2022/04/19 00:17:20;;;;;;;2.77;2.17;;;;;;;7.22;53.96;95295.19;5003343;28;20188;-80
2022/04/19 00:19:46;;;;;;;3.50;2.20;;;;;;;7.18;54.04;95282.69;4987093;28;20782;-80
2022/04/19 00:22:12;;;;;;;3.13;1.93;;;;;;;7.15;54.19;95281.19;4986639;28;20223;-80
2022/04/19 00:24:38;;;;;;;3.03;2.10;;;;;;;7.15;53.89;95281.19;4987373;28;20235;-82
2022/04/19 00:27:03;;;;;;;2.40;2.17;;;;;;;7.19;53.92;95274.00;4986997;28;20204;-80
2022/04/19 00:29:29;;;;;;;2.03;1.80;;;;;;;7.15;53.75;95267.44;4987051;28;20214;-80
2022/04/19 00:31:54;;;;;;;2.90;2.03;;;;;;;7.21;53.53;95274.66;5002701;28;20211;-80
2022/04/19 00:34:19;;;;;;;4.07;2.20;;;;;;;7.21;53.15;95267.75;4986363;28;20196;-81
2022/04/19 00:36:44;;;;;;;4.43;2.37;;;;;;;7.21;53.44;95266.94;5003262;28;20188;-80
2022/04/19 00:39:10;;;;;;;2.57;2.03;;;;;;;7.25;52.98;95257.97;5003563;28;20190;-80
2022/04/19 00:41:36;;;;;;;4.77;2.10;;;;;;;7.30;52.98;95261.75;4993350;28;20227;-81
2022/04/19 00:44:01;;;;;;;2.53;2.00;;;;;;;7.26;53.31;95260.41;4976298;28;20227;-81
2022/04/19 00:46:26;;;;;;;3.00;1.57;;;;;;;7.26;53.23;95260.41;4989621;28;20184;-81
2022/04/19 00:48:56;;;;;;;2.80;1.77;;;;;;;7.16;53.56;95253.63;4972170;28;20200;-82
2022/04/19 00:51:22;;;;;;;3.23;2.00;;;;;;;7.12;53.31;95252.22;4973581;28;20181;-82
2022/04/19 00:53:47;;;;;;;2.00;1.77;;;;;;;7.13;53.62;95248.69;4988695;28;20191;-82
2022/04/19 00:56:13;;;;;;;2.43;2.00;;;;;;;7.07;53.74;95245.72;4983875;28;20271;-82
2022/04/19 00:58:39;;;;;;;4.17;1.90;;;;;;;7.02;54.18;95247.06;4960755;28;20200;-82
2022/04/19 01:01:04;;;;;;;2.07;1.87;;;;;;;7.08;54.28;95246.53;4976913;28;20207;-81
2022/04/19 01:03:29;;;;;;;3.30;2.13;;;;;;;7.05;54.02;95239.84;4976159;28;20605;-82
2022/04/19 01:05:55;;;;;;;3.97;1.80;;;;;;;6.98;54.09;95240.50;4977586;28;20262;-82
2022/04/19 01:08:22;;;;;;;2.70;2.03;;;;;;;6.95;54.26;95236.44;4977036;28;20208;-82
2022/04/19 01:10:47;;;;;;;3.20;1.77;;;;;;;6.96;54.56;95237.25;4975678;28;20522;-82
2022/04/19 01:13:18;;;;;;;3.33;1.90;;;;;;;6.91;54.21;95229.91;4976682;28;20259;-81
2022/04/19 01:15:47;;;;;;;2.70;2.20;;;;;;;6.88;54.61;95226.78;4994345;28;20267;-82
2022/04/19 01:18:14;;;;;;;2.40;2.07;;;;;;;6.84;54.84;95239.13;4960524;28;20207;-82
2022/04/19 01:20:39;;;;;;;3.27;2.40;;;;;;;6.86;55.17;95234.66;4960748;28;20661;-82
2022/04/19 01:23:05;;;;;;;2.93;2.20;;;;;;;6.89;55.00;95226.66;4976214;28;20648;-83
2022/04/19 01:25:30;;;;;;;3.00;1.90;;;;;;;6.86;55.23;95229.50;4961099;28;20186;-83
2022/04/19 01:27:55;;;;;;;4.47;2.13;;;;;;;6.75;55.57;95230.41;4952934;29;20220;-82
2022/04/19 01:30:21;;;;;;;3.80;2.03;;;;;;;6.70;55.75;95227.41;4957572;29;20815;-82
2022/04/19 01:32:46;;;;;;;3.87;2.27;;;;;;;6.68;55.70;95231.88;4956421;29;20185;-82
2022/04/19 01:35:19;;;;;;;3.10;2.27;;;;;;;6.65;55.94;95223.59;4961211;29;20177;-83
2022/04/19 01:37:47;;;;;;;3.93;2.13;;;;;;;6.69;55.69;95224.97;4962460;29;20216;-82
2022/04/19 01:40:19;;;;;;;3.67;2.10;;;;;;;6.66;55.68;95220.06;4957169;29;20550;-82
2022/04/19 01:42:52;;;;;;;2.73;2.00;;;;;;;6.63;55.47;95215.19;4957080;28;20759;-82
2022/04/19 01:45:20;;;;;;;2.70;2.33;;;;;;;6.70;54.84;95206.75;4957147;29;20248;-82
2022/04/19 01:47:46;;;;;;;2.37;2.17;;;;;;;6.73;54.38;95210.88;4956701;29;20197;-83
2022/04/19 01:50:15;;;;;;;3.50;2.27;;;;;;;6.77;54.03;95207.06;4956891;28;20249;-83
2022/04/19 01:52:41;;;;;;;5.90;2.17;;;;;;;6.85;53.98;95204.63;4940192;29;20177;-82
2022/04/19 01:55:09;;;;;;;2.87;2.20;;;;;;;6.82;53.62;95210.88;4956222;29;20215;-83
2022/04/19 01:57:34;;;;;;;5.63;2.10;;;;;;;6.84;54.02;95203.00;4956634;28;20228;-82
2022/04/19 02:00:00;;;;;;;2.90;2.00;;;;;;;6.83;53.78;95206.53;4956553;29;20670;-82
2022/04/19 02:02:25;;;;;;;3.07;2.17;;;;;;;6.85;53.76;95199.47;4955690;28;20213;-83
2022/04/19 02:04:50;;;;;;;3.33;2.43;;;;;;;6.77;54.15;95196.72;4956060;29;20189;-83
2022/04/19 02:07:16;;;;;;;3.33;2.17;;;;;;;6.70;54.16;95204.19;4955161;28;20200;-82
2022/04/19 02:09:41;;;;;;;2.30;2.00;;;;;;;6.64;54.72;95204.72;4954693;29;20186;-83
2022/04/19 02:12:07;;;;;;;3.30;2.07;;;;;;;6.66;55.00;95200.25;4955601;29;20189;-82
2022/04/19 02:14:33;;;;;;;3.87;2.23;;;;;;;6.61;55.05;95199.81;4955815;29;20197;-82
2022/04/19 02:16:58;;;;;;;2.90;2.13;;;;;;;6.63;55.27;95194.53;4939942;29;20231;-82
2022/04/19 02:19:23;;;;;;;3.00;2.00;;;;;;;6.59;55.15;95193.97;4956603;28;20272;-82
2022/04/19 02:21:49;;;;;;;2.30;2.10;;;;;;;6.41;56.11;95192.97;4939838;29;20252;-82
2022/04/19 02:24:14;;;;;;;2.57;1.97;;;;;;;6.44;56.07;95192.69;4956153;29;20185;-82
2022/04/19 02:26:39;;;;;;;2.63;2.10;;;;;;;6.39;56.08;95195.69;4956256;28;20177;-82
2022/04/19 02:29:05;;;;;;;3.57;2.50;;;;;;;6.38;56.62;95193.25;4956629;29;20177;-82
2022/04/19 02:31:30;;;;;;;3.53;1.87;;;;;;;6.37;56.48;95192.44;4957257;28;20177;-82
2022/04/19 02:33:58;;;;;;;4.03;2.20;;;;;;;6.25;56.74;95185.72;4956555;28;20268;-82
2022/04/19 02:36:24;;;;;;;5.63;2.30;;;;;;;6.24;57.03;95190.06;4956247;29;20545;-82
2022/04/19 02:38:49;;;;;;;3.33;2.33;;;;;;;6.19;57.41;95181.09;4956196;29;20197;-82
2022/04/19 02:41:14;;;;;;;3.87;2.37;;;;;;;6.15;57.67;95184.88;4955639;29;20212;-83
2022/04/19 02:43:40;;;;;;;3.27;2.33;;;;;;;6.26;56.86;95187.34;4940269;29;20198;-82
2022/04/19 02:46:05;;;;;;;4.77;3.03;;;;;;;6.34;56.44;95187.50;4939933;29;20181;-82
2022/04/19 02:48:30;;;;;;;3.00;2.40;;;;;;;6.51;55.70;95186.88;4955943;29;20200;-82
2022/04/19 02:50:56;;;;;;;3.83;3.30;;;;;;;6.63;55.50;95181.66;4955751;29;20191;-82
2022/04/19 02:53:21;;;;;;;4.93;2.60;;;;;;;6.85;54.52;95176.25;4955405;29;20184;-82
2022/04/19 02:55:47;;;;;;;4.57;2.87;;;;;;;6.93;53.99;95173.00;4955510;29;20204;-83
2022/04/19 02:58:13;;;;;;;4.80;2.80;;;;;;;6.92;54.12;95173.94;4955598;28;20211;-82
2022/04/19 03:00:38;;;;;;;4.10;2.63;;;;;;;6.93;54.73;95170.41;4955495;29;20185;-82
2022/04/19 03:03:03;;;;;;;3.20;2.43;;;;;;;6.98;54.04;95176.81;4954890;29;20197;-82
2022/04/19 03:05:29;;;;;;;3.67;2.67;;;;;;;6.93;53.90;95171.22;4955408;29;20260;-82
2022/04/19 03:07:54;;;;;;;3.70;2.67;;;;;;;6.96;54.75;95168.38;4955255;29;20221;-82
2022/04/19 03:10:21;;;;;;;2.63;2.43;;;;;;;6.89;54.51;95174.19;4954377;29;20595;-82
2022/04/19 03:12:46;;;;;;;3.20;2.40;;;;;;;6.74;55.16;95173.78;4955493;28;20185;-82
2022/04/19 03:15:12;;;;;;;4.47;2.60;;;;;;;6.70;55.06;95165.47;4955746;29;20555;-82
2022/04/19 03:17:40;;;;;;;2.80;2.30;;;;;;;6.55;56.17;95163.44;4939348;29;20196;-81
2022/04/19 03:20:09;;;;;;;2.70;2.40;;;;;;;6.49;56.06;95168.16;4939620;29;20304;-82
2022/04/19 03:28:06;;;;;;;2.83;2.63;;;;;;;6.52;55.66;95167.06;4955840;29;20279;-81
2022/04/19 03:30:31;;;;;;;3.53;2.50;;;;;;;6.52;55.78;95156.75;4956043;29;20655;-82
2022/04/19 03:32:56;;;;;;;5.17;2.77;;;;;;;6.41;56.10;95157.69;4954766;29;20193;-81
2022/04/19 03:35:22;;;;;;;4.83;2.80;;;;;;;6.53;55.62;95159.19;4955585;29;20665;-82
2022/04/19 03:37:47;;;;;;;4.03;2.67;;;;;;;6.53;55.96;95158.38;4954937;29;20327;-82
2022/04/19 03:40:14;;;;;;;4.93;2.50;;;;;;;6.51;55.98;95161.09;4955710;29;20180;-82
2022/04/19 03:42:40;;;;;;;7.43;3.60;;;;;;;6.45;56.18;95158.25;4954257;28;20267;-82
2022/04/19 03:45:06;;;;;;;3.53;2.90;;;;;;;6.46;55.91;95163.28;4954850;29;20178;-81
2022/04/19 03:47:34;;;;;;;4.00;2.40;;;;;;;6.46;55.87;95155.53;4970808;28;20193;-82
2022/04/19 03:50:00;;;;;;;4.10;2.70;;;;;;;6.49;55.92;95155.25;4954874;29;20177;-82
2022/04/19 03:52:25;;;;;;;3.83;2.77;;;;;;;6.45;56.03;95156.47;4954524;29;20188;-83
2022/04/19 03:54:50;;;;;;;3.70;3.00;;;;;;;6.45;55.78;95159.06;4937580;29;20189;-83
2022/04/19 03:57:16;;;;;;;4.50;3.13;;;;;;;6.40;56.57;95162.97;4974911;28;20197;-83
2022/04/19 03:59:42;;;;;;;4.23;2.90;;;;;;;6.32;56.54;95161.03;4979662;28;20239;-83
2022/04/19 04:02:07;;;;;;;5.17;3.10;;;;;;;6.23;56.66;95164.41;4968808;28;20212;-82
2022/04/19 04:04:34;;;;;;;3.93;2.80;;;;;;;6.19;56.59;95163.88;4971499;28;20187;-83
2022/04/19 04:07:00;;;;;;;3.17;2.80;;;;;;;6.13;56.57;95158.41;4992236;28;20211;-83
2022/04/19 04:09:26;;;;;;;4.27;3.00;;;;;;;6.08;56.89;95157.97;4994094;28;20173;-83
2022/04/19 04:11:51;;;;;;;4.40;2.90;;;;;;;5.99;56.95;95158.75;4994376;28;20173;-84
2022/04/19 04:14:18;;;;;;;3.70;2.90;;;;;;;5.90;58.05;95155.97;4992719;28;20188;-82
2022/04/19 04:16:43;;;;;;;4.00;2.53;;;;;;;5.80;58.41;95157.66;4973445;28;20177;-83
2022/04/19 04:19:08;;;;;;;3.13;2.57;;;;;;;5.71;58.93;95157.63;4955209;28;20776;-83
2022/04/19 04:21:34;;;;;;;3.20;2.03;;;;;;;5.65;59.58;95161.50;4971520;28;20196;-83
2022/04/19 04:23:59;;;;;;;2.43;2.23;;;;;;;5.58;59.43;95163.81;4970858;28;20542;-83
2022/04/19 04:26:24;;;;;;;3.50;2.63;;;;;;;5.62;59.60;95167.75;4971006;28;20185;-83
2022/04/19 04:28:50;;;;;;;3.47;2.80;;;;;;;5.61;59.53;95166.13;4970969;28;20200;-83
2022/04/19 04:31:15;;;;;;;3.53;2.97;;;;;;;5.61;59.61;95170.44;4957700;28;20223;-83
2022/04/19 04:33:40;;;;;;;4.23;2.37;;;;;;;5.61;59.96;95170.44;4974953;28;20175;-82
2022/04/19 04:36:06;;;;;;;3.50;2.60;;;;;;;5.61;59.86;95170.44;4975091;28;20180;-83
2022/04/19 04:38:31;;;;;;;2.60;2.33;;;;;;;5.63;59.83;95168.56;4974841;28;20201;-83
2022/04/19 04:40:57;;;;;;;3.57;2.80;;;;;;;5.67;59.71;95167.38;4974233;28;20304;-83
2022/04/19 04:43:22;;;;;;;3.17;2.70;;;;;;;5.70;59.30;95167.13;4974136;28;20274;-83
2022/04/19 04:49:35;;;;;;;2.60;2.33;;;;;;;5.77;59.34;95160.50;4958490;28;20189;-83
2022/04/19 04:51:19;;;;;;;3.27;2.30;;;;;;;5.87;58.81;95165.72;4973806;28;20231;-83
2022/04/19 04:53:45;;;;;;;5.03;3.00;;;;;;;5.96;58.65;95167.56;4958161;28;20188;-83
2022/04/19 04:56:10;;;;;;;3.20;2.40;;;;;;;6.37;57.90;95169.22;4961589;28;20180;-82
2022/04/19 04:58:35;;;;;;;3.43;2.40;;;;;;;6.61;57.01;95175.78;4997212;28;20228;-84
2022/04/19 05:01:01;;;;;;;4.83;2.33;;;;;;;6.61;56.27;95171.44;4981141;28;20200;-86
2022/04/19 05:03:26;;;;;;;2.67;2.30;;;;;;;6.59;56.30;95168.19;4969341;28;20276;-86
2022/04/19 05:05:51;;;;;;;3.83;2.60;;;;;;;6.60;56.63;95169.81;4967939;28;20239;-86
2022/04/19 05:08:18;;;;;;;3.60;1.90;;;;;;;6.70;55.99;95167.25;4984610;28;20227;-84
2022/04/19 05:10:43;;;;;;;3.37;2.60;;;;;;;6.71;56.16;95174.03;4963920;28;20196;-85
2022/04/19 05:13:09;;;;;;;5.07;2.10;;;;;;;6.80;55.57;95170.66;4978491;28;20299;-82
2022/04/19 05:15:34;;;;;;;3.20;2.13;;;;;;;6.87;55.73;95171.75;4980231;28;20671;-84
2022/04/19 05:17:59;;;;;;;3.27;2.70;;;;;;;7.01;55.80;95180.88;4977234;28;20250;-84
2022/04/19 05:20:24;;;;;;;2.90;2.00;;;;;;;7.12;55.54;95180.75;4976120;28;20192;-84
2022/04/19 05:22:50;;;;;;;3.47;2.43;;;;;;;7.23;55.15;95184.97;4960755;28;20209;-82
2022/04/19 05:25:15;;;;;;;2.83;2.50;;;;;;;7.36;55.18;95182.94;4959216;28;20195;-83
2022/04/19 05:27:41;;;;;;;2.87;2.03;;;;;;;7.62;54.61;95178.81;4975105;28;20224;-82
2022/04/19 05:30:06;;;;;;;2.33;1.73;;;;;;;7.67;54.07;95178.41;4959257;28;20552;-83
2022/04/19 05:32:32;;;;;;;3.00;2.10;;;;;;;7.89;53.34;95179.84;4975460;28;20181;-83
2022/04/19 05:34:57;;;;;;;2.67;2.20;;;;;;;7.97;53.31;95181.75;4953809;28;20184;-82
2022/04/19 05:37:23;;;;;;;5.23;1.90;;;;;;;7.99;53.56;95185.00;4974728;28;20284;-82
2022/04/19 05:39:48;;;;;;;3.20;2.00;;;;;;;8.05;53.01;95184.44;4974329;28;20212;-82
2022/04/19 05:42:13;;;;;;;2.80;2.27;;;;;;;8.05;52.80;95181.88;4972691;28;20636;-83
2022/04/19 05:44:38;;;;;;;3.43;2.13;;;;;;;8.09;52.94;95175.44;4991323;28;20645;-84
2022/04/19 05:47:04;;;;;;;6.53;2.20;;;;;;;8.15;53.02;95177.47;4975059;28;20203;-83
2022/04/19 05:49:29;;;;;;;5.07;2.20;;;;;;;8.27;52.54;95175.50;4990234;28;20188;-80
2022/04/19 05:51:55;;;;;;;3.63;2.30;;;;;;;8.40;52.84;95183.81;4994159;28;20184;-82
2022/04/19 05:54:20;;;;;;;3.93;2.43;;;;;;;8.51;52.25;95183.63;4999236;28;20585;-82
2022/04/19 05:56:45;;;;;;;2.97;2.10;;;;;;;8.65;52.12;95187.47;4975164;28;20672;-82
2022/04/19 05:59:11;;;;;;;4.20;2.07;;;;;;;8.69;51.86;95187.06;4975121;28;20176;-82
2022/04/19 06:07:04;;;;;;;4.17;2.30;;;;;;;8.81;50.79;95200.59;5000367;28;20726;-82
2022/04/19 06:09:29;;;;;;;2.47;2.10;;;;;;;8.96;50.23;95200.94;4958018;28;20184;-83
2022/04/19 06:11:55;;;;;;;3.07;2.27;;;;;;;9.00;50.14;95202.25;4973484;28;20203;-82
2022/04/19 06:14:20;;;;;;;2.63;2.33;;;;;;;9.10;50.04;95200.44;4973871;28;20188;-82
2022/04/19 06:16:45;;;;;;;4.17;2.20;;;;;;;9.25;49.74;95201.53;4972791;28;20267;-81
2022/04/19 06:19:10;;;;;;;3.40;2.20;;;;;;;9.40;49.52;95206.22;5004754;28;20180;-82
2022/04/19 06:21:36;;;;;;;2.97;2.60;;;;;;;9.57;48.27;95201.03;4988370;28;20204;-82
2022/04/19 06:24:04;;;;;;;7.13;2.60;;;;;;;9.67;46.48;95208.72;4973742;28;20189;-83
2022/04/19 06:26:29;;;;;;;3.37;2.77;;;;;;;9.79;46.27;95202.31;4974265;28;20269;-84
2022/04/19 06:28:55;;;;;;;3.90;2.30;;;;;;;10.00;46.00;95202.00;4973844;28;20286;-83
2022/04/19 06:31:21;;;;;;;4.17;2.60;;;;;;;10.12;45.60;95199.94;4983008;28;20254;-82
2022/04/19 06:33:46;;;;;;;4.43;2.70;;;;;;;10.22;45.98;95205.88;4977954;28;20235;-82
2022/04/19 06:36:11;;;;;;;3.10;2.53;;;;;;;10.35;44.40;95208.88;4962764;28;20196;-83
2022/04/19 06:38:36;;;;;;;4.60;2.90;;;;;;;10.25;43.89;95205.59;4975059;28;20216;-82
2022/04/19 06:41:02;;;;;;;3.53;2.67;;;;;;;10.48;43.27;95204.06;4958874;28;20279;-83
2022/04/19 06:43:27;;;;;;;3.77;2.70;;;;;;;10.45;42.31;95200.97;4974576;28;20207;-83
2022/04/19 06:45:52;;;;;;;4.83;2.90;;;;;;;10.67;43.03;95210.00;5007229;28;20263;-83
2022/04/19 06:48:18;;;;;;;3.13;2.50;;;;;;;10.80;42.70;95209.56;5008043;28;20228;-84
2022/04/19 06:50:43;;;;;;;4.43;2.57;;;;;;;10.81;42.05;95206.00;5007040;28;20190;-83
2022/04/19 06:53:09;;;;;;;4.37;3.10;;;;;;;10.95;42.02;95207.97;4995847;28;20652;-82
2022/04/19 06:55:34;;;;;;;3.20;2.63;;;;;;;11.22;42.38;95204.31;4979326;28;20264;-83
2022/04/19 06:57:59;;;;;;;4.07;2.70;;;;;;;11.31;41.88;95216.38;4993210;28;20199;-84
2022/04/19 07:00:25;;;;;;;3.03;2.50;;;;;;;11.19;42.16;95205.44;4965901;28;20184;-82
2022/04/19 07:02:50;;;;;;;5.67;3.27;;;;;;;11.37;40.89;95207.91;4966275;28;20203;-82
2022/04/19 07:05:16;;;;;;;4.00;2.70;;;;;;;11.48;40.69;95204.97;5000607;28;20617;-83
2022/04/19 07:07:42;;;;;;;2.93;2.60;;;;;;;11.56;40.33;95206.78;4965061;28;20302;-83
2022/04/19 07:10:10;;;;;;;4.63;3.10;;;;;;;11.50;40.36;95218.66;4960555;28;20192;-84
2022/04/19 07:12:36;;;;;;;4.43;3.13;;;;;;;11.80;40.08;95214.63;4975494;28;20690;-83
2022/04/19 07:15:01;;;;;;;5.37;3.07;;;;;;;11.91;39.81;95219.50;4975067;28;20173;-83
2022/04/19 07:17:26;;;;;;;5.23;3.03;;;;;;;12.05;39.68;95215.44;4977164;28;20207;-83
2022/04/19 07:28:10;;;;;;;4.17;3.43;;;;;;;12.09;39.07;95208.09;4975818;28;20254;-82
2022/04/19 07:30:35;;;;;;;4.67;3.20;;;;;;;12.22;38.57;95212.81;4974925;28;20593;-83
2022/04/19 07:33:02;;;;;;;3.90;2.80;;;;;;;12.26;39.21;95216.69;4957137;28;20185;-83
2022/04/19 07:35:28;;;;;;;3.97;3.20;;;;;;;12.16;38.92;95220.28;5007135;28;20179;-84
2022/04/19 07:37:53;;;;;;;3.77;3.20;;;;;;;12.28;38.01;95210.38;4992331;28;20200;-83
2022/04/19 07:40:18;;;;;;;3.93;3.10;;;;;;;12.31;38.40;95215.22;4966180;28;20612;-83
2022/04/19 07:42:44;;;;;;;3.80;3.03;;;;;;;12.16;39.22;95211.66;4982956;28;20219;-84
2022/04/19 07:45:09;;;;;;;4.53;3.10;;;;;;;11.91;39.80;95209.09;4984868;28;20479;-84
2022/04/19 07:47:34;;;;;;;4.93;2.47;;;;;;;12.21;40.58;95205.97;4958990;28;20668;-83
2022/04/19 07:50:01;;;;;;;4.83;3.27;;;;;;;12.24;40.24;95196.03;4965555;28;20176;-83
2022/04/19 07:52:26;;;;;;;5.10;3.50;;;;;;;12.16;40.31;95202.06;4982094;28;20183;-84
2022/04/19 07:54:51;;;;;;;5.13;3.53;;;;;;;12.14;40.05;95206.63;4975533;28;20718;-83
2022/04/19 07:57:20;;;;;;;7.53;3.37;;;;;;;12.21;39.74;95205.97;4990049;28;20197;-84
2022/04/19 07:59:46;;;;;;;3.87;3.43;;;;;;;12.33;40.49;95208.06;5005967;28;20264;-83
2022/04/19 08:02:12;;;;;;;4.40;3.30;;;;;;;12.25;40.74;95205.47;5004862;28;20255;-83
2022/04/19 08:04:37;;;;;;;5.27;3.57;;;;;;;12.40;41.70;95203.00;4976356;28;20180;-84
2022/04/19 08:07:03;;;;;;;4.63;3.43;;;;;;;12.18;40.76;95210.50;4977583;28;20263;-83
2022/04/19 08:09:28;;;;;;;5.33;3.60;;;;;;;12.40;40.44;95206.41;4960415;28;20207;-83
2022/04/19 08:11:53;;;;;;;4.43;3.40;;;;;;;12.64;41.20;95199.53;4976425;28;20545;-83
2022/04/19 08:14:19;;;;;;;4.97;3.43;;;;;;;12.86;39.04;95200.56;4994093;28;20185;-82
2022/04/19 08:16:44;;;;;;;3.97;3.10;;;;;;;12.98;40.18;95199.19;4978356;28;20181;-83
2022/04/19 08:19:10;;;;;;;3.60;2.90;;;;;;;12.96;39.51;95208.97;4970217;28;20184;-83
2022/04/19 08:21:35;;;;;;;4.00;3.00;;;;;;;13.10;38.53;95200.44;4973895;28;20206;-84
2022/04/19 08:24:00;;;;;;;5.97;2.50;;;;;;;12.96;37.68;95195.94;4982716;28;20181;-83
2022/04/19 08:26:26;;;;;;;4.23;2.80;;;;;;;13.03;37.83;95202.09;5006324;28;20189;-83
2022/04/19 08:28:51;;;;;;;4.67;2.50;;;;;;;13.17;37.43;95193.56;5022949;28;20250;-81
2022/04/19 08:31:16;;;;;;;5.70;3.00;;;;;;;13.41;38.07;95194.41;4965323;28;20595;-82
2022/04/19 08:33:42;;;;;;;4.20;2.60;;;;;;;13.41;37.86;95194.41;4987467;28;20188;-83
2022/04/19 08:36:07;;;;;;;3.90;2.87;;;;;;;13.26;37.58;95196.97;5004431;28;20200;-84
2022/04/19 08:38:32;;;;;;;4.10;3.03;;;;;;;13.20;36.98;95198.44;5002349;28;20209;-84
2022/04/19 08:40:58;;;;;;;4.53;2.80;;;;;;;13.30;35.02;95195.63;4991982;28;20215;-83
2022/04/19 08:43:23;;;;;;;5.00;2.57;;;;;;;13.30;34.94;95196.44;4983933;28;20188;-84
2022/04/19 08:45:48;;;;;;;4.13;3.10;;;;;;;13.41;35.57;95197.81;4971522;28;20184;-83
2022/04/19 08:48:15;;;;;;;3.87;3.00;;;;;;;13.03;36.56;95199.50;4985076;28;20208;-83
2022/04/19 08:50:42;;;;;;;3.53;2.93;;;;;;;13.10;37.39;95187.41;4986713;28;20541;-84
2022/04/19 08:58:49;;;;;;;3.20;2.30;;;;;;;13.49;35.20;95191.75;4983562;28;20219;-83
2022/04/19 09:01:15;;;;;;;9.87;6.50;;;;;;;13.59;35.46;95189.72;4983869;28;20196;-83
2022/04/19 09:03:41;;;;;;;3.43;2.50;;;;;;;13.14;34.88;95190.47;4984531;28;20540;-83
2022/04/19 09:06:06;;;;;;;3.77;2.33;;;;;;;13.31;34.24;95192.84;4983930;28;20229;-84
2022/04/19 09:08:32;;;;;;;4.17;2.30;;;;;;;13.40;34.53;95192.78;4968912;28;20212;-83
2022/04/19 09:11:08;;;;;;;3.53;2.40;;;;;;;13.21;35.04;95191.44;4969133;28;20181;-82
2022/04/19 09:13:34;;;;;;;3.53;2.60;;;;;;;13.38;35.31;95184.34;4991557;28;20656;-83
2022/04/19 09:16:06;;;;;;;6.07;2.27;;;;;;;13.73;34.47;95186.34;4967814;28;20195;-83
2022/04/19 09:18:34;;;;;;;4.10;2.00;;;;;;;13.98;33.40;95193.97;4966563;28;20231;-84
2022/04/19 09:21:08;;;;;;;3.37;2.20;;;;;;;13.67;33.73;95194.06;4990172;28;20697;-82
2022/04/19 09:23:37;;;;;;;4.50;2.40;;;;;;;13.89;33.32;95190.63;4988833;28;20176;-83
2022/04/19 09:26:11;;;;;;;3.03;2.20;;;;;;;14.10;34.60;95192.53;4991397;28;20184;-81
2022/04/19 09:28:38;;;;;;;5.20;2.40;;;;;;;14.05;34.39;95190.50;4988075;28;20634;-83
2022/04/19 09:31:13;;;;;;;4.07;2.57;;;;;;;14.17;33.45;95194.28;4971877;28;20169;-86
2022/04/19 09:33:39;;;;;;;6.77;3.00;;;;;;;13.86;32.18;95188.34;4962854;28;20260;-83
2022/04/19 09:36:05;;;;;;;4.33;2.70;;;;;;;13.82;34.41;95177.47;4983770;28;20644;-83
2022/04/19 09:38:39;;;;;;;7.80;2.90;;;;;;;13.89;35.39;95177.56;4970185;28;20339;-82
2022/04/19 09:41:06;;;;;;;3.80;2.43;;;;;;;13.69;35.89;95177.22;5003836;28;20191;-83
2022/04/19 09:43:32;;;;;;;4.63;2.57;;;;;;;13.85;35.16;95171.88;5000924;28;20207;-82
2022/04/19 09:46:02;;;;;;;4.40;2.50;;;;;;;13.92;34.87;95171.19;5011423;28;20180;-84
2022/04/19 09:48:34;;;;;;;5.03;2.40;;;;;;;13.72;34.86;95178.69;4994817;28;20228;-83
2022/04/19 09:51:04;;;;;;;5.63;2.50;;;;;;;14.01;33.31;95176.16;4996912;28;20195;-89
2022/04/19 09:53:42;;;;;;;3.23;2.53;;;;;;;13.70;34.24;95170.25;5004113;28;20181;-80
2022/04/19 09:56:18;;;;;;;7.50;2.50;;;;;;;13.77;33.33;95173.75;4982123;28;20164;-83
2022/04/19 09:58:46;;;;;;;3.23;2.53;;;;;;;14.02;33.64;95169.13;4986148;28;20235;-84
2022/04/19 10:09:26;;;;;;;3.10;2.43;;;;;;;14.20;33.31;95159.16;4978490;28;20187;-84
2022/04/19 10:11:51;;;;;;;4.10;2.40;;;;;;;14.14;32.77;95157.28;4989341;28;20181;-83
2022/04/19 10:14:18;;;;;;;5.17;3.37;;;;;;;14.49;32.62;95165.41;4975944;28;20208;-85
2022/04/19 10:16:44;;;;;;;4.63;3.60;;;;;;;14.50;33.09;95156.59;4942800;28;20200;-85
2022/04/19 10:19:10;;;;;;;4.17;3.50;;;;;;;14.45;33.97;95157.94;4991705;28;20202;-83
2022/04/19 10:21:41;;;;;;;7.70;3.77;;;;;;;14.63;32.26;95154.13;4990144;28;20267;-82
2022/04/19 10:24:15;;;;;;;4.07;3.23;;;;;;;14.21;31.48;95155.53;5004120;28;20184;-83
2022/04/19 10:26:43;;;;;;;4.43;3.20;;;;;;;14.45;32.03;95151.91;4956199;28;20188;-82
2022/04/19 10:29:21;;;;;;;4.60;3.73;;;;;;;14.34;31.10;95150.53;4972371;28;20238;-84
2022/04/19 10:32:04;;;;;;;4.73;3.10;;;;;;;14.63;31.46;95154.13;4970564;28;20187;-83
2022/04/19 10:34:32;;;;;;;4.50;2.87;;;;;;;14.72;32.20;95153.03;4957172;28;20188;-83
2022/04/19 10:37:19;;;;;;;3.70;2.80;;;;;;;14.78;30.54;95157.53;4972318;28;20255;-84
2022/04/19 10:39:52;;;;;;;5.67;3.60;;;;;;;14.71;32.04;95157.47;4972559;28;20712;-83
2022/04/19 10:42:28;;;;;;;4.57;3.20;;;;;;;14.64;30.72;95151.34;4955240;28;20215;-83
2022/04/19 10:44:55;;;;;;;5.77;3.70;;;;;;;14.77;33.57;95147.28;5005177;28;20684;-83
2022/04/19 10:47:23;;;;;;;4.37;3.43;;;;;;;14.76;31.45;95149.09;4956132;28;20343;-82
2022/04/19 10:50:02;;;;;;;6.80;3.80;;;;;;;14.69;31.08;95148.19;4976126;28;20191;-82
2022/04/19 10:52:36;;;;;;;5.67;3.67;;;;;;;14.58;31.03;95157.31;4957981;28;20270;-84
2022/04/19 10:55:07;;;;;;;5.77;3.60;;;;;;;14.39;32.42;95136.91;5007061;28;20180;-83
2022/04/19 10:58:33;;;;;;;3.90;3.47;;;;;;;14.58;32.58;95144.25;4974444;28;20227;-83
2022/04/19 11:00:37;;;;;;;4.10;3.20;;;;;;;14.48;31.57;95145.50;4964461;28;20208;-84
2022/04/19 11:03:05;;;;;;;4.97;3.20;;;;;;;14.21;31.02;95133.84;5005603;28;20259;-84
2022/04/19 11:05:46;;;;;;;4.87;3.00;;;;;;;14.65;31.15;95137.28;4976232;28;20196;-84
2022/04/19 11:08:30;;;;;;;4.37;3.20;;;;;;;14.66;31.01;95141.50;4992385;28;20283;-85
2022/04/19 11:10:55;;;;;;;7.67;3.50;;;;;;;14.69;30.25;95133.31;4976861;28;20206;-84
2022/04/19 11:13:27;;;;;;;3.70;3.00;;;;;;;14.90;31.84;95129.13;5007693;28;20256;-84
2022/04/19 11:15:57;;;;;;;5.13;3.13;;;;;;;15.04;29.73;95125.66;4960355;28;20271;-84
2022/04/19 11:18:33;;;;;;;4.47;2.73;;;;;;;14.89;29.92;95127.50;4974705;28;20197;-83
2022/04/19 11:21:11;;;;;;;4.67;2.90;;;;;;;15.35;30.80;95122.75;4974937;28;20188;-84
2022/04/19 11:23:47;;;;;;;3.63;3.03;;;;;;;15.13;28.96;95123.75;4959017;28;20187;-84
2022/04/19 11:26:30;;;;;;;2.97;2.40;;;;;;;14.72;28.26;95126.91;4973857;28;20229;-84
2022/04/19 11:29:08;;;;;;;7.33;3.27;;;;;;;14.88;29.76;95121.47;4976441;28;20263;-84
2022/04/19 11:31:33;;;;;;;3.57;2.80;;;;;;;14.80;29.82;95128.59;4989455;28;20207;-84
2022/04/19 11:33:59;;;;;;;4.97;2.90;;;;;;;15.04;30.62;95122.25;4974934;28;20545;-84
2022/04/19 11:36:24;;;;;;;4.80;2.80;;;;;;;15.01;30.47;95121.59;4990911;28;20192;-84
2022/04/19 11:38:50;;;;;;;4.37;3.30;;;;;;;15.32;28.89;95112.66;5010790;28;20276;-84
2022/04/19 11:46:49;;;;;;;3.23;2.30;;;;;;;14.98;28.07;95108.91;5001805;28;20184;-84
2022/04/19 11:49:35;;;;;;;2.97;2.50;;;;;;;14.83;28.88;95113.34;4974026;28;20621;-85
2022/04/19 11:52:11;;;;;;;3.03;2.73;;;;;;;14.89;29.02;95111.81;4975812;28;20188;-85
2022/04/19 11:54:37;;;;;;;4.27;2.70;;;;;;;15.36;30.01;95113.88;4964561;28;20186;-84
2022/04/19 11:57:10;;;;;;;3.13;2.80;;;;;;;15.33;28.67;95110.84;4973063;28;20206;-84
2022/04/19 11:59:36;;;;;;;3.83;2.50;;;;;;;15.67;28.33;95097.09;4989813;28;20646;-84
2022/04/19 12:02:03;;;;;;;3.03;2.23;;;;;;;15.32;27.28;95110.03;5005214;28;20216;-84
2022/04/19 12:04:29;;;;;;;3.17;2.43;;;;;;;15.69;28.52;95106.34;4972393;28;20572;-83
2022/04/19 12:07:03;;;;;;;8.23;2.60;;;;;;;15.82;27.76;95098.63;4971442;28;20192;-86
2022/04/19 12:09:30;;;;;;;2.63;2.37;;;;;;;15.29;27.14;95111.25;4996483;28;20227;-84
2022/04/19 12:11:56;;;;;;;2.93;2.63;;;;;;;15.46;27.45;95092.63;4971363;28;20205;-84
2022/04/19 12:14:31;;;;;;;3.00;2.63;;;;;;;16.07;27.47;95091.09;4971369;28;20188;-82
2022/04/19 12:16:57;;;;;;;4.80;3.33;;;;;;;15.96;27.17;95094.28;4956622;28;20192;-83
2022/04/19 12:19:34;;;;;;;4.87;3.20;;;;;;;16.24;28.25;95098.66;4989214;28;20181;-83